sensor_id;sensor_type;location;lat;lon;timestamp;P1;durP1;ratioP1;P2;durP2;ratioP2
13607;SDS011;6875;50.852;5.672;2023-06-10T00:00:16;6.67;;;6.07;;
13607;SDS011;6875;50.852;5.672;2023-06-10T00:02:43;10.37;;;6.30;;
13607;SDS011;6875;50.852;5.672;2023-06-10T00:05:12;7.63;;;6.20;;
13607;SDS011;6875;50.852;5.672;2023-06-10T00:07:40;8.53;;;6.20;;
13607;SDS011;6875;50.852;5.672;2023-06-10T00:10:07;8.37;;;6.33;;
13607;SDS011;6875;50.852;5.672;2023-06-10T00:12:37;7.10;;;6.40;;
13607;SDS011;6875;50.852;5.672;2023-06-10T00:15:03;8.20;;;6.47;;
13607;SDS011;6875;50.852;5.672;2023-06-10T00:17:31;9.27;;;6.53;;
13607;SDS011;6875;50.852;5.672;2023-06-10T00:19:57;7.63;;;6.97;;
13607;SDS011;6875;50.852;5.672;2023-06-10T00:22:24;10.67;;;8.23;;
13607;SDS011;6875;50.852;5.672;2023-06-10T00:24:54;9.63;;;7.10;;
13607;SDS011;6875;50.852;5.672;2023-06-10T00:27:21;9.47;;;8.57;;
13607;SDS011;6875;50.852;5.672;2023-06-10T00:29:50;8.63;;;7.83;;
13607;SDS011;6875;50.852;5.672;2023-06-10T00:32:16;10.03;;;7.57;;
13607;SDS011;6875;50.852;5.672;2023-06-10T00:34:43;7.87;;;7.03;;
13607;SDS011;6875;50.852;5.672;2023-06-10T00:37:09;7.87;;;7.07;;
13607;SDS011;6875;50.852;5.672;2023-06-10T00:39:36;9.20;;;7.07;;
13607;SDS011;6875;50.852;5.672;2023-06-10T00:42:04;9.90;;;7.53;;
13607;SDS011;6875;50.852;5.672;2023-06-10T00:44:32;13.40;;;7.70;;
13607;SDS011;6875;50.852;5.672;2023-06-10T00:47:00;8.73;;;7.90;;
13607;SDS011;6875;50.852;5.672;2023-06-10T00:49:27;10.40;;;7.83;;
13607;SDS011;6875;50.852;5.672;2023-06-10T00:51:54;12.57;;;8.43;;
13607;SDS011;6875;50.852;5.672;2023-06-10T00:54:20;9.43;;;8.40;;
13607;SDS011;6875;50.852;5.672;2023-06-10T00:56:47;10.17;;;8.90;;
13607;SDS011;6875;50.852;5.672;2023-06-10T00:59:14;9.93;;;8.30;;
13607;SDS011;6875;50.852;5.672;2023-06-10T01:01:41;9.90;;;8.63;;
13607;SDS011;6875;50.852;5.672;2023-06-10T01:04:10;9.47;;;8.43;;
13607;SDS011;6875;50.852;5.672;2023-06-10T01:06:40;9.60;;;8.60;;
13607;SDS011;6875;50.852;5.672;2023-06-10T01:09:13;12.50;;;8.50;;
13607;SDS011;6875;50.852;5.672;2023-06-10T01:11:47;13.03;;;8.20;;
13607;SDS011;6875;50.852;5.672;2023-06-10T01:14:16;9.27;;;8.27;;
13607;SDS011;6875;50.852;5.672;2023-06-10T01:16:43;9.20;;;8.33;;
13607;SDS011;6875;50.852;5.672;2023-06-10T01:19:12;10.20;;;8.67;;
13607;SDS011;6875;50.852;5.672;2023-06-10T01:21:42;10.73;;;8.40;;
13607;SDS011;6875;50.852;5.672;2023-06-10T01:24:13;12.90;;;8.00;;
13607;SDS011;6875;50.852;5.672;2023-06-10T01:26:43;11.50;;;8.10;;
13607;SDS011;6875;50.852;5.672;2023-06-10T01:29:11;11.03;;;8.50;;
13607;SDS011;6875;50.852;5.672;2023-06-10T01:31:41;12.00;;;8.30;;
13607;SDS011;6875;50.852;5.672;2023-06-10T01:34:12;9.17;;;8.23;;
13607;SDS011;6875;50.852;5.672;2023-06-10T01:36:40;10.97;;;8.60;;
13607;SDS011;6875;50.852;5.672;2023-06-10T01:39:10;9.13;;;8.17;;
13607;SDS011;6875;50.852;5.672;2023-06-10T01:41:37;8.93;;;8.03;;
13607;SDS011;6875;50.852;5.672;2023-06-10T01:44:04;8.93;;;8.03;;
13607;SDS011;6875;50.852;5.672;2023-06-10T01:46:31;9.40;;;8.50;;
13607;SDS011;6875;50.852;5.672;2023-06-10T01:48:57;15.90;;;9.40;;
13607;SDS011;6875;50.852;5.672;2023-06-10T01:51:24;9.37;;;8.07;;
13607;SDS011;6875;50.852;5.672;2023-06-10T01:53:52;13.50;;;8.50;;
13607;SDS011;6875;50.852;5.672;2023-06-10T01:56:19;10.23;;;8.77;;
13607;SDS011;6875;50.852;5.672;2023-06-10T01:58:46;11.60;;;9.00;;
13607;SDS011;6875;50.852;5.672;2023-06-10T02:01:13;10.50;;;8.07;;
13607;SDS011;6875;50.852;5.672;2023-06-10T02:03:40;12.10;;;9.60;;
13607;SDS011;6875;50.852;5.672;2023-06-10T02:06:06;10.93;;;9.07;;
13607;SDS011;6875;50.852;5.672;2023-06-10T02:08:33;11.23;;;8.90;;
13607;SDS011;6875;50.852;5.672;2023-06-10T02:11:01;12.37;;;8.83;;
13607;SDS011;6875;50.852;5.672;2023-06-10T02:13:28;13.27;;;9.57;;
13607;SDS011;6875;50.852;5.672;2023-06-10T02:15:54;13.37;;;8.87;;
13607;SDS011;6875;50.852;5.672;2023-06-10T02:18:22;10.60;;;8.90;;
13607;SDS011;6875;50.852;5.672;2023-06-10T02:20:49;9.80;;;8.90;;
13607;SDS011;6875;50.852;5.672;2023-06-10T02:23:15;11.07;;;8.90;;
13607;SDS011;6875;50.852;5.672;2023-06-10T02:25:42;11.90;;;9.17;;
13607;SDS011;6875;50.852;5.672;2023-06-10T02:28:10;10.43;;;9.43;;
13607;SDS011;6875;50.852;5.672;2023-06-10T02:30:38;9.87;;;8.87;;
13607;SDS011;6875;50.852;5.672;2023-06-10T02:33:06;14.97;;;9.93;;
13607;SDS011;6875;50.852;5.672;2023-06-10T02:35:34;10.30;;;9.13;;
13607;SDS011;6875;50.852;5.672;2023-06-10T02:38:01;10.10;;;9.10;;
13607;SDS011;6875;50.852;5.672;2023-06-10T02:40:29;10.97;;;9.40;;
13607;SDS011;6875;50.852;5.672;2023-06-10T02:42:56;14.50;;;9.47;;
13607;SDS011;6875;50.852;5.672;2023-06-10T02:45:24;11.07;;;9.20;;
13607;SDS011;6875;50.852;5.672;2023-06-10T02:47:51;11.83;;;9.47;;
13607;SDS011;6875;50.852;5.672;2023-06-10T02:50:18;10.23;;;8.97;;
13607;SDS011;6875;50.852;5.672;2023-06-10T02:52:46;10.77;;;9.40;;
13607;SDS011;6875;50.852;5.672;2023-06-10T02:55:13;11.70;;;9.07;;
13607;SDS011;6875;50.852;5.672;2023-06-10T02:57:40;11.10;;;9.73;;
13607;SDS011;6875;50.852;5.672;2023-06-10T03:00:07;10.53;;;9.50;;
13607;SDS011;6875;50.852;5.672;2023-06-10T03:02:37;10.00;;;9.00;;
13607;SDS011;6875;50.852;5.672;2023-06-10T03:05:05;12.23;;;9.00;;
13607;SDS011;6875;50.852;5.672;2023-06-10T03:07:34;10.10;;;8.87;;
13607;SDS011;6875;50.852;5.672;2023-06-10T03:10:01;11.37;;;9.43;;
13607;SDS011;6875;50.852;5.672;2023-06-10T03:12:29;9.70;;;8.70;;
13607;SDS011;6875;50.852;5.672;2023-06-10T03:14:55;12.50;;;8.93;;
13607;SDS011;6875;50.852;5.672;2023-06-10T03:17:22;14.73;;;9.27;;
13607;SDS011;6875;50.852;5.672;2023-06-10T03:19:52;13.50;;;9.90;;
13607;SDS011;6875;50.852;5.672;2023-06-10T03:22:19;10.20;;;9.10;;
13607;SDS011;6875;50.852;5.672;2023-06-10T03:24:46;10.47;;;8.60;;
13607;SDS011;6875;50.852;5.672;2023-06-10T03:27:15;11.10;;;8.63;;
13607;SDS011;6875;50.852;5.672;2023-06-10T03:29:42;10.23;;;8.80;;
13607;SDS011;6875;50.852;5.672;2023-06-10T03:32:09;10.23;;;8.10;;
13607;SDS011;6875;50.852;5.672;2023-06-10T03:34:36;9.43;;;8.43;;
13607;SDS011;6875;50.852;5.672;2023-06-10T03:37:05;10.37;;;8.70;;
13607;SDS011;6875;50.852;5.672;2023-06-10T03:39:32;11.93;;;9.63;;
13607;SDS011;6875;50.852;5.672;2023-06-10T03:42:00;10.63;;;8.70;;
13607;SDS011;6875;50.852;5.672;2023-06-10T03:44:27;11.13;;;8.37;;
13607;SDS011;6875;50.852;5.672;2023-06-10T03:46:54;10.30;;;9.07;;
13607;SDS011;6875;50.852;5.672;2023-06-10T03:49:21;10.50;;;8.63;;
13607;SDS011;6875;50.852;5.672;2023-06-10T03:51:50;10.67;;;8.23;;
13607;SDS011;6875;50.852;5.672;2023-06-10T03:54:19;10.43;;;8.60;;
13607;SDS011;6875;50.852;5.672;2023-06-10T03:56:45;10.50;;;8.97;;
13607;SDS011;6875;50.852;5.672;2023-06-10T03:59:13;11.87;;;8.87;;
13607;SDS011;6875;50.852;5.672;2023-06-10T04:01:39;9.23;;;8.33;;
13607;SDS011;6875;50.852;5.672;2023-06-10T04:04:06;11.23;;;8.43;;
13607;SDS011;6875;50.852;5.672;2023-06-10T04:06:33;10.63;;;7.97;;
13607;SDS011;6875;50.852;5.672;2023-06-10T04:09:00;9.50;;;8.30;;
13607;SDS011;6875;50.852;5.672;2023-06-10T04:11:29;15.03;;;9.20;;
13607;SDS011;6875;50.852;5.672;2023-06-10T04:13:57;13.43;;;8.63;;
13607;SDS011;6875;50.852;5.672;2023-06-10T04:16:23;9.30;;;8.40;;
13607;SDS011;6875;50.852;5.672;2023-06-10T04:18:50;9.97;;;8.30;;
13607;SDS011;6875;50.852;5.672;2023-06-10T04:21:17;10.53;;;8.17;;
13607;SDS011;6875;50.852;5.672;2023-06-10T04:23:43;14.23;;;9.57;;
13607;SDS011;6875;50.852;5.672;2023-06-10T04:26:10;11.17;;;8.63;;
13607;SDS011;6875;50.852;5.672;2023-06-10T04:28:38;11.47;;;8.93;;
13607;SDS011;6875;50.852;5.672;2023-06-10T04:31:05;8.60;;;7.70;;
13607;SDS011;6875;50.852;5.672;2023-06-10T04:33:32;9.47;;;8.47;;
13607;SDS011;6875;50.852;5.672;2023-06-10T04:35:59;10.40;;;8.43;;
13607;SDS011;6875;50.852;5.672;2023-06-10T04:38:25;9.30;;;8.00;;
13607;SDS011;6875;50.852;5.672;2023-06-10T04:40:52;9.70;;;8.70;;
13607;SDS011;6875;50.852;5.672;2023-06-10T04:43:19;12.13;;;8.50;;
13607;SDS011;6875;50.852;5.672;2023-06-10T04:45:47;11.73;;;8.43;;
13607;SDS011;6875;50.852;5.672;2023-06-10T04:48:14;10.73;;;8.60;;
13607;SDS011;6875;50.852;5.672;2023-06-10T04:50:40;9.87;;;8.13;;
13607;SDS011;6875;50.852;5.672;2023-06-10T04:53:07;11.03;;;8.83;;
13607;SDS011;6875;50.852;5.672;2023-06-10T04:55:34;12.97;;;8.63;;
13607;SDS011;6875;50.852;5.672;2023-06-10T04:58:01;11.03;;;8.03;;
13607;SDS011;6875;50.852;5.672;2023-06-10T05:00:28;12.77;;;7.97;;
13607;SDS011;6875;50.852;5.672;2023-06-10T05:02:56;10.57;;;8.33;;
13607;SDS011;6875;50.852;5.672;2023-06-10T05:05:23;12.60;;;7.80;;
13607;SDS011;6875;50.852;5.672;2023-06-10T05:07:49;11.30;;;8.33;;
13607;SDS011;6875;50.852;5.672;2023-06-10T05:10:16;10.87;;;8.33;;
13607;SDS011;6875;50.852;5.672;2023-06-10T05:12:43;10.83;;;8.20;;
13607;SDS011;6875;50.852;5.672;2023-06-10T05:15:09;9.47;;;8.03;;
13607;SDS011;6875;50.852;5.672;2023-06-10T05:17:37;10.10;;;8.60;;
13607;SDS011;6875;50.852;5.672;2023-06-10T05:20:05;13.20;;;9.17;;
13607;SDS011;6875;50.852;5.672;2023-06-10T05:22:33;12.57;;;8.17;;
13607;SDS011;6875;50.852;5.672;2023-06-10T05:25:00;10.03;;;8.63;;
13607;SDS011;6875;50.852;5.672;2023-06-10T05:27:26;12.10;;;8.50;;
13607;SDS011;6875;50.852;5.672;2023-06-10T05:29:54;10.00;;;8.57;;
13607;SDS011;6875;50.852;5.672;2023-06-10T05:32:20;14.27;;;9.03;;
13607;SDS011;6875;50.852;5.672;2023-06-10T05:34:47;10.50;;;8.83;;
13607;SDS011;6875;50.852;5.672;2023-06-10T05:37:16;11.03;;;8.60;;
13607;SDS011;6875;50.852;5.672;2023-06-10T05:39:42;11.73;;;8.67;;
13607;SDS011;6875;50.852;5.672;2023-06-10T05:42:09;11.83;;;8.43;;
13607;SDS011;6875;50.852;5.672;2023-06-10T05:44:36;10.90;;;8.03;;
13607;SDS011;6875;50.852;5.672;2023-06-10T05:47:03;11.77;;;8.10;;
13607;SDS011;6875;50.852;5.672;2023-06-10T05:49:30;11.90;;;8.70;;
13607;SDS011;6875;50.852;5.672;2023-06-10T05:52:02;12.87;;;8.17;;
13607;SDS011;6875;50.852;5.672;2023-06-10T05:54:31;12.27;;;8.70;;
13607;SDS011;6875;50.852;5.672;2023-06-10T05:56:58;12.83;;;8.23;;
13607;SDS011;6875;50.852;5.672;2023-06-10T05:59:30;12.23;;;8.10;;
13607;SDS011;6875;50.852;5.672;2023-06-10T06:01:56;13.30;;;8.10;;
13607;SDS011;6875;50.852;5.672;2023-06-10T06:04:24;12.50;;;8.33;;
13607;SDS011;6875;50.852;5.672;2023-06-10T06:06:51;9.37;;;7.83;;
13607;SDS011;6875;50.852;5.672;2023-06-10T06:09:17;10.93;;;8.80;;
13607;SDS011;6875;50.852;5.672;2023-06-10T06:11:45;9.70;;;7.83;;
13607;SDS011;6875;50.852;5.672;2023-06-10T06:14:12;10.10;;;7.80;;
13607;SDS011;6875;50.852;5.672;2023-06-10T06:16:38;10.03;;;7.77;;
13607;SDS011;6875;50.852;5.672;2023-06-10T06:19:05;10.70;;;7.70;;
13607;SDS011;6875;50.852;5.672;2023-06-10T06:21:32;11.73;;;7.67;;
13607;SDS011;6875;50.852;5.672;2023-06-10T06:23:59;8.37;;;7.37;;
13607;SDS011;6875;50.852;5.672;2023-06-10T06:26:25;12.33;;;6.53;;
13607;SDS011;6875;50.852;5.672;2023-06-10T06:28:53;11.93;;;6.83;;
13607;SDS011;6875;50.852;5.672;2023-06-10T06:31:20;10.07;;;6.50;;
13607;SDS011;6875;50.852;5.672;2023-06-10T06:33:46;8.77;;;6.10;;
13607;SDS011;6875;50.852;5.672;2023-06-10T06:36:13;10.60;;;6.70;;
13607;SDS011;6875;50.852;5.672;2023-06-10T06:38:39;10.67;;;6.20;;
13607;SDS011;6875;50.852;5.672;2023-06-10T06:41:06;8.40;;;6.30;;
13607;SDS011;6875;50.852;5.672;2023-06-10T06:43:33;11.07;;;6.13;;
13607;SDS011;6875;50.852;5.672;2023-06-10T06:46:01;11.43;;;6.10;;
13607;SDS011;6875;50.852;5.672;2023-06-10T06:48:28;11.53;;;5.93;;
13607;SDS011;6875;50.852;5.672;2023-06-10T06:50:54;9.43;;;6.00;;
13607;SDS011;6875;50.852;5.672;2023-06-10T06:53:23;6.33;;;5.63;;
13607;SDS011;6875;50.852;5.672;2023-06-10T06:55:49;8.27;;;5.63;;
13607;SDS011;6875;50.852;5.672;2023-06-10T06:58:16;10.03;;;6.30;;
13607;SDS011;6875;50.852;5.672;2023-06-10T07:00:43;8.73;;;6.13;;
13607;SDS011;6875;50.852;5.672;2023-06-10T07:03:11;12.17;;;5.93;;
13607;SDS011;6875;50.852;5.672;2023-06-10T07:05:37;7.90;;;5.97;;
13607;SDS011;6875;50.852;5.672;2023-06-10T07:08:04;8.43;;;5.60;;
13607;SDS011;6875;50.852;5.672;2023-06-10T07:10:31;10.57;;;6.40;;
13607;SDS011;6875;50.852;5.672;2023-06-10T07:12:58;8.13;;;5.83;;
13607;SDS011;6875;50.852;5.672;2023-06-10T07:15:25;7.70;;;5.57;;
13607;SDS011;6875;50.852;5.672;2023-06-10T07:17:51;12.43;;;6.33;;
13607;SDS011;6875;50.852;5.672;2023-06-10T07:20:21;11.87;;;5.87;;
13607;SDS011;6875;50.852;5.672;2023-06-10T07:22:47;9.07;;;5.83;;
13607;SDS011;6875;50.852;5.672;2023-06-10T07:25:14;11.33;;;6.03;;
13607;SDS011;6875;50.852;5.672;2023-06-10T07:27:41;16.27;;;12.40;;
13607;SDS011;6875;50.852;5.672;2023-06-10T07:30:08;9.93;;;6.00;;
13607;SDS011;6875;50.852;5.672;2023-06-10T07:32:36;11.40;;;7.00;;
13607;SDS011;6875;50.852;5.672;2023-06-10T07:35:03;9.43;;;5.90;;
13607;SDS011;6875;50.852;5.672;2023-06-10T07:37:33;9.53;;;6.23;;
13607;SDS011;6875;50.852;5.672;2023-06-10T07:40:00;9.50;;;6.43;;
13607;SDS011;6875;50.852;5.672;2023-06-10T07:42:27;7.67;;;5.53;;
13607;SDS011;6875;50.852;5.672;2023-06-10T07:44:54;10.87;;;5.93;;
13607;SDS011;6875;50.852;5.672;2023-06-10T07:47:20;9.37;;;5.43;;
13607;SDS011;6875;50.852;5.672;2023-06-10T07:49:47;11.60;;;5.57;;
13607;SDS011;6875;50.852;5.672;2023-06-10T07:52:14;7.73;;;5.60;;
13607;SDS011;6875;50.852;5.672;2023-06-10T07:54:42;13.53;;;9.23;;
13607;SDS011;6875;50.852;5.672;2023-06-10T07:57:09;7.40;;;6.60;;
13607;SDS011;6875;50.852;5.672;2023-06-10T07:59:35;7.83;;;5.27;;
13607;SDS011;6875;50.852;5.672;2023-06-10T08:02:02;8.03;;;5.30;;
13607;SDS011;6875;50.852;5.672;2023-06-10T08:04:29;10.00;;;5.53;;
13607;SDS011;6875;50.852;5.672;2023-06-10T08:06:56;8.50;;;5.93;;
13607;SDS011;6875;50.852;5.672;2023-06-10T08:09:23;11.97;;;5.77;;
13607;SDS011;6875;50.852;5.672;2023-06-10T08:11:51;9.27;;;5.67;;
13607;SDS011;6875;50.852;5.672;2023-06-10T08:14:18;9.57;;;5.60;;
13607;SDS011;6875;50.852;5.672;2023-06-10T08:16:44;9.17;;;5.63;;
13607;SDS011;6875;50.852;5.672;2023-06-10T08:19:11;9.40;;;5.40;;
13607;SDS011;6875;50.852;5.672;2023-06-10T08:21:38;8.50;;;5.63;;
13607;SDS011;6875;50.852;5.672;2023-06-10T08:24:05;9.93;;;5.23;;
13607;SDS011;6875;50.852;5.672;2023-06-10T08:26:32;7.70;;;5.87;;
13607;SDS011;6875;50.852;5.672;2023-06-10T08:29:00;8.33;;;5.60;;
13607;SDS011;6875;50.852;5.672;2023-06-10T08:31:27;7.63;;;5.03;;
13607;SDS011;6875;50.852;5.672;2023-06-10T08:33:54;6.80;;;5.10;;
13607;SDS011;6875;50.852;5.672;2023-06-10T08:36:20;7.80;;;5.33;;
13607;SDS011;6875;50.852;5.672;2023-06-10T08:38:47;8.90;;;5.07;;
13607;SDS011;6875;50.852;5.672;2023-06-10T08:41:14;8.33;;;5.77;;
13607;SDS011;6875;50.852;5.672;2023-06-10T08:43:44;7.83;;;5.30;;
13607;SDS011;6875;50.852;5.672;2023-06-10T08:46:13;8.90;;;5.23;;
13607;SDS011;6875;50.852;5.672;2023-06-10T08:48:41;6.83;;;4.57;;
13607;SDS011;6875;50.852;5.672;2023-06-10T08:51:09;5.70;;;5.10;;
13607;SDS011;6875;50.852;5.672;2023-06-10T08:53:37;8.37;;;5.40;;
13607;SDS011;6875;50.852;5.672;2023-06-10T08:56:04;6.93;;;5.30;;
13607;SDS011;6875;50.852;5.672;2023-06-10T08:58:32;6.10;;;5.00;;
13607;SDS011;6875;50.852;5.672;2023-06-10T09:01:05;10.13;;;5.63;;
13607;SDS011;6875;50.852;5.672;2023-06-10T09:03:33;7.80;;;5.30;;
13607;SDS011;6875;50.852;5.672;2023-06-10T09:06:00;10.30;;;5.43;;
13607;SDS011;6875;50.852;5.672;2023-06-10T09:08:28;6.67;;;4.70;;
13607;SDS011;6875;50.852;5.672;2023-06-10T09:10:55;9.10;;;5.50;;
13607;SDS011;6875;50.852;5.672;2023-06-10T09:13:21;9.93;;;4.90;;
13607;SDS011;6875;50.852;5.672;2023-06-10T09:15:48;9.27;;;5.03;;
13607;SDS011;6875;50.852;5.672;2023-06-10T09:18:16;7.83;;;5.03;;
13607;SDS011;6875;50.852;5.672;2023-06-10T09:20:44;8.23;;;5.30;;
13607;SDS011;6875;50.852;5.672;2023-06-10T09:23:11;6.50;;;5.60;;
13607;SDS011;6875;50.852;5.672;2023-06-10T09:25:38;9.50;;;5.80;;
13607;SDS011;6875;50.852;5.672;2023-06-10T09:28:08;6.57;;;5.40;;
13607;SDS011;6875;50.852;5.672;2023-06-10T09:30:39;9.47;;;5.40;;
13607;SDS011;6875;50.852;5.672;2023-06-10T09:33:09;10.37;;;5.87;;
13607;SDS011;6875;50.852;5.672;2023-06-10T09:35:37;10.60;;;6.17;;
13607;SDS011;6875;50.852;5.672;2023-06-10T09:38:12;8.83;;;5.73;;
13607;SDS011;6875;50.852;5.672;2023-06-10T09:40:48;7.33;;;5.27;;
13607;SDS011;6875;50.852;5.672;2023-06-10T09:43:16;9.40;;;5.73;;
13607;SDS011;6875;50.852;5.672;2023-06-10T09:45:42;9.87;;;6.00;;
13607;SDS011;6875;50.852;5.672;2023-06-10T09:48:09;10.80;;;5.97;;
13607;SDS011;6875;50.852;5.672;2023-06-10T09:50:41;9.17;;;5.57;;
13607;SDS011;6875;50.852;5.672;2023-06-10T09:53:10;10.73;;;5.87;;
13607;SDS011;6875;50.852;5.672;2023-06-10T09:55:37;11.00;;;6.00;;
13607;SDS011;6875;50.852;5.672;2023-06-10T09:58:04;8.77;;;6.00;;
13607;SDS011;6875;50.852;5.672;2023-06-10T10:00:31;8.70;;;5.83;;
13607;SDS011;6875;50.852;5.672;2023-06-10T10:02:58;9.17;;;5.50;;
13607;SDS011;6875;50.852;5.672;2023-06-10T10:05:26;8.80;;;6.07;;
13607;SDS011;6875;50.852;5.672;2023-06-10T10:07:53;9.47;;;5.83;;
13607;SDS011;6875;50.852;5.672;2023-06-10T10:10:22;11.50;;;5.57;;
13607;SDS011;6875;50.852;5.672;2023-06-10T10:12:53;8.87;;;5.83;;
13607;SDS011;6875;50.852;5.672;2023-06-10T10:15:22;13.70;;;6.10;;
13607;SDS011;6875;50.852;5.672;2023-06-10T10:17:52;9.63;;;6.17;;
13607;SDS011;6875;50.852;5.672;2023-06-10T10:20:20;8.63;;;6.10;;
13607;SDS011;6875;50.852;5.672;2023-06-10T10:22:50;13.80;;;6.40;;
13607;SDS011;6875;50.852;5.672;2023-06-10T10:25:21;9.67;;;6.17;;
13607;SDS011;6875;50.852;5.672;2023-06-10T10:27:55;7.97;;;5.73;;
13607;SDS011;6875;50.852;5.672;2023-06-10T10:30:23;10.63;;;6.00;;
13607;SDS011;6875;50.852;5.672;2023-06-10T10:32:52;6.37;;;5.50;;
13607;SDS011;6875;50.852;5.672;2023-06-10T10:35:23;9.13;;;5.63;;
13607;SDS011;6875;50.852;5.672;2023-06-10T10:37:51;9.50;;;5.53;;
13607;SDS011;6875;50.852;5.672;2023-06-10T10:40:19;9.17;;;6.00;;
13607;SDS011;6875;50.852;5.672;2023-06-10T10:42:47;6.57;;;5.03;;
13607;SDS011;6875;50.852;5.672;2023-06-10T10:45:14;10.87;;;5.73;;
13607;SDS011;6875;50.852;5.672;2023-06-10T10:47:41;12.57;;;5.23;;
13607;SDS011;6875;50.852;5.672;2023-06-10T10:50:15;6.13;;;5.00;;
13607;SDS011;6875;50.852;5.672;2023-06-10T10:52:48;8.00;;;5.70;;
13607;SDS011;6875;50.852;5.672;2023-06-10T10:55:18;7.13;;;5.63;;
13607;SDS011;6875;50.852;5.672;2023-06-10T10:57:46;8.00;;;5.53;;
13607;SDS011;6875;50.852;5.672;2023-06-10T11:00:24;6.80;;;5.13;;
13607;SDS011;6875;50.852;5.672;2023-06-10T11:02:51;12.30;;;5.40;;
13607;SDS011;6875;50.852;5.672;2023-06-10T11:05:20;9.07;;;5.50;;
13607;SDS011;6875;50.852;5.672;2023-06-10T11:08:00;8.43;;;5.00;;
13607;SDS011;6875;50.852;5.672;2023-06-10T11:10:30;6.03;;;5.00;;
13607;SDS011;6875;50.852;5.672;2023-06-10T11:12:59;11.40;;;5.53;;
13607;SDS011;6875;50.852;5.672;2023-06-10T11:15:26;6.93;;;5.10;;
13607;SDS011;6875;50.852;5.672;2023-06-10T11:18:07;6.17;;;4.63;;
13607;SDS011;6875;50.852;5.672;2023-06-10T11:23:29;6.97;;;5.20;;
13607;SDS011;6875;50.852;5.672;2023-06-10T11:26:11;7.30;;;4.63;;
13607;SDS011;6875;50.852;5.672;2023-06-10T11:28:40;6.80;;;5.20;;
13607;SDS011;6875;50.852;5.672;2023-06-10T11:31:08;7.87;;;4.73;;
13607;SDS011;6875;50.852;5.672;2023-06-10T11:33:36;8.20;;;5.10;;
13607;SDS011;6875;50.852;5.672;2023-06-10T11:36:06;7.75;;;5.10;;
13607;SDS011;6875;50.852;5.672;2023-06-10T11:38:33;7.07;;;5.28;;
13607;SDS011;6875;50.852;5.672;2023-06-10T11:41:05;7.25;;;4.82;;
13607;SDS011;6875;50.852;5.672;2023-06-10T11:43:32;6.28;;;4.43;;
13607;SDS011;6875;50.852;5.672;2023-06-10T11:46:00;7.85;;;4.85;;
13607;SDS011;6875;50.852;5.672;2023-06-10T11:48:27;5.95;;;5.15;;
13607;SDS011;6875;50.852;5.672;2023-06-10T11:50:55;7.68;;;4.60;;
13607;SDS011;6875;50.852;5.672;2023-06-10T11:53:22;6.80;;;4.82;;
13607;SDS011;6875;50.852;5.672;2023-06-10T11:55:50;6.40;;;4.40;;
13607;SDS011;6875;50.852;5.672;2023-06-10T11:58:18;6.30;;;4.75;;
13607;SDS011;6875;50.852;5.672;2023-06-10T12:00:46;8.23;;;4.70;;
13607;SDS011;6875;50.852;5.672;2023-06-10T12:03:14;6.75;;;4.50;;
13607;SDS011;6875;50.852;5.672;2023-06-10T12:05:53;5.53;;;4.60;;
13607;SDS011;6875;50.852;5.672;2023-06-10T12:08:21;7.68;;;5.43;;
13607;SDS011;6875;50.852;5.672;2023-06-10T12:10:48;7.35;;;5.88;;
13607;SDS011;6875;50.852;5.672;2023-06-10T12:13:14;7.68;;;4.60;;
13607;SDS011;6875;50.852;5.672;2023-06-10T12:15:42;8.80;;;4.97;;
13607;SDS011;6875;50.852;5.672;2023-06-10T12:18:16;6.57;;;4.55;;
13607;SDS011;6875;50.852;5.672;2023-06-10T12:20:43;7.13;;;5.00;;
13607;SDS011;6875;50.852;5.672;2023-06-10T12:23:10;5.35;;;4.57;;
13607;SDS011;6875;50.852;5.672;2023-06-10T12:25:37;6.50;;;4.50;;
13607;SDS011;6875;50.852;5.672;2023-06-10T12:28:04;7.60;;;4.50;;
13607;SDS011;6875;50.852;5.672;2023-06-10T12:30:32;7.97;;;4.70;;
13607;SDS011;6875;50.852;5.672;2023-06-10T12:32:59;6.60;;;4.50;;
13607;SDS011;6875;50.852;5.672;2023-06-10T12:35:27;5.65;;;4.72;;
13607;SDS011;6875;50.852;5.672;2023-06-10T12:37:54;6.60;;;4.53;;
13607;SDS011;6875;50.852;5.672;2023-06-10T12:40:25;7.57;;;4.97;;
13607;SDS011;6875;50.852;5.672;2023-06-10T12:42:52;5.78;;;4.50;;
13607;SDS011;6875;50.852;5.672;2023-06-10T12:45:25;6.63;;;4.10;;
13607;SDS011;6875;50.852;5.672;2023-06-10T12:47:53;7.82;;;4.30;;
13607;SDS011;6875;50.852;5.672;2023-06-10T12:50:32;5.47;;;4.30;;
13607;SDS011;6875;50.852;5.672;2023-06-10T12:52:59;5.82;;;3.95;;
13607;SDS011;6875;50.852;5.672;2023-06-10T12:55:25;8.52;;;4.93;;
13607;SDS011;6875;50.852;5.672;2023-06-10T12:57:53;5.15;;;4.35;;
13607;SDS011;6875;50.852;5.672;2023-06-10T13:00:20;5.82;;;4.47;;
13607;SDS011;6875;50.852;5.672;2023-06-10T13:02:48;8.55;;;4.72;;
13607;SDS011;6875;50.852;5.672;2023-06-10T13:05:16;5.65;;;4.70;;
13607;SDS011;6875;50.852;5.672;2023-06-10T13:07:45;8.02;;;4.43;;
13607;SDS011;6875;50.852;5.672;2023-06-10T13:10:12;7.35;;;4.57;;
13607;SDS011;6875;50.852;5.672;2023-06-10T13:12:38;6.55;;;4.60;;
13607;SDS011;6875;50.852;5.672;2023-06-10T13:15:06;6.30;;;4.28;;
13607;SDS011;6875;50.852;5.672;2023-06-10T13:17:33;6.22;;;4.25;;
13607;SDS011;6875;50.852;5.672;2023-06-10T13:20:01;8.48;;;4.43;;
13607;SDS011;6875;50.852;5.672;2023-06-10T13:22:28;5.07;;;4.15;;
13607;SDS011;6875;50.852;5.672;2023-06-10T13:24:59;7.35;;;4.43;;
13607;SDS011;6875;50.852;5.672;2023-06-10T13:27:25;6.43;;;4.30;;
13607;SDS011;6875;50.852;5.672;2023-06-10T13:29:52;6.05;;;4.07;;
13607;SDS011;6875;50.852;5.672;2023-06-10T13:32:18;4.30;;;3.90;;
13607;SDS011;6875;50.852;5.672;2023-06-10T13:34:45;5.35;;;4.30;;
13607;SDS011;6875;50.852;5.672;2023-06-10T13:37:12;6.22;;;3.83;;
13607;SDS011;6875;50.852;5.672;2023-06-10T13:39:39;5.03;;;4.20;;
13607;SDS011;6875;50.852;5.672;2023-06-10T13:42:07;6.53;;;4.00;;
13607;SDS011;6875;50.852;5.672;2023-06-10T13:44:34;4.15;;;3.58;;
13607;SDS011;6875;50.852;5.672;2023-06-10T13:47:01;6.00;;;3.78;;
13607;SDS011;6875;50.852;5.672;2023-06-10T13:49:28;7.95;;;3.95;;
13607;SDS011;6875;50.852;5.672;2023-06-10T13:51:56;5.28;;;4.20;;
13607;SDS011;6875;50.852;5.672;2023-06-10T13:54:22;5.65;;;3.95;;
13607;SDS011;6875;50.852;5.672;2023-06-10T13:56:49;6.28;;;3.92;;
13607;SDS011;6875;50.852;5.672;2023-06-10T13:59:20;5.97;;;4.00;;
13607;SDS011;6875;50.852;5.672;2023-06-10T14:01:47;6.45;;;4.30;;
13607;SDS011;6875;50.852;5.672;2023-06-10T14:04:13;4.32;;;3.92;;
13607;SDS011;6875;50.852;5.672;2023-06-10T14:06:40;4.78;;;4.05;;
13607;SDS011;6875;50.852;5.672;2023-06-10T14:09:06;5.57;;;3.92;;
13607;SDS011;6875;50.852;5.672;2023-06-10T14:11:33;8.25;;;4.20;;
13607;SDS011;6875;50.852;5.672;2023-06-10T14:14:00;10.82;;;4.32;;
13607;SDS011;6875;50.852;5.672;2023-06-10T14:16:28;5.55;;;4.20;;
13607;SDS011;6875;50.852;5.672;2023-06-10T14:18:55;6.00;;;4.00;;
13607;SDS011;6875;50.852;5.672;2023-06-10T14:21:21;6.85;;;4.35;;
13607;SDS011;6875;50.852;5.672;2023-06-10T14:23:48;6.03;;;4.50;;
13607;SDS011;6875;50.852;5.672;2023-06-10T14:26:16;5.82;;;4.30;;
13607;SDS011;6875;50.852;5.672;2023-06-10T14:28:43;5.18;;;4.25;;
13607;SDS011;6875;50.852;5.672;2023-06-10T14:31:10;5.15;;;4.57;;
13607;SDS011;6875;50.852;5.672;2023-06-10T14:33:38;8.10;;;4.90;;
13607;SDS011;6875;50.852;5.672;2023-06-10T14:36:07;5.65;;;4.53;;
13607;SDS011;6875;50.852;5.672;2023-06-10T14:38:35;6.18;;;4.10;;
13607;SDS011;6875;50.852;5.672;2023-06-10T14:41:02;4.85;;;4.20;;
13607;SDS011;6875;50.852;5.672;2023-06-10T14:43:29;5.65;;;4.32;;
13607;SDS011;6875;50.852;5.672;2023-06-10T14:45:56;5.15;;;4.20;;
13607;SDS011;6875;50.852;5.672;2023-06-10T14:48:22;5.47;;;4.13;;
13607;SDS011;6875;50.852;5.672;2023-06-10T14:50:51;7.05;;;4.57;;
13607;SDS011;6875;50.852;5.672;2023-06-10T14:53:20;7.97;;;4.30;;
13607;SDS011;6875;50.852;5.672;2023-06-10T14:55:46;5.45;;;4.15;;
13607;SDS011;6875;50.852;5.672;2023-06-10T14:58:13;7.22;;;4.18;;
13607;SDS011;6875;50.852;5.672;2023-06-10T15:00:40;8.00;;;4.05;;